Pine Bank, Pennsylvania
Current Conditions -  °F | °C
As of 8:53 PM on Monday 22 Dec 2014 (Local Time) from KMGW Reporting Station
Clear Clear  
Wind Chill: 41°   Ceiling: Unl
Heat Index: 41°   Visibility: 10mi
Dew Point: 30°   Wind: 0mph
Humidity: 65%   Direction: NA
Pressure: 29.94"   Gusts: NA
Location:  39.76°N, 80.31°W
Report Text: KMGW 230153Z 00000KT 10SM CLR 05/M01 A2994 RMK AO2 SLP148 T00501011
Loading
Personal Weather Stations






























Interactive Weather Map New forecast layout! Learn more

10-Day Weather Forecast

Advertisements
Track Severe Weather on mobile